Chewalla, Tennessee
Current Conditions -  °F | °C
As of 9:55 AM on Friday 28 Nov 2014 (Local Time) from KCRX Reporting Station
Clear Clear  
Wind Chill: 34°   Ceiling: Unl
Heat Index: 39°   Visibility: NA
Dew Point: 25°   Wind: 8mph
Humidity: 56%   Direction: 160°SSE
Pressure: 30.41"   Gusts: NA
Location:  35.01°N, 88.65°W
Report Text: KCRX 281555Z AUTO 16007KT CLR 04/M04 A3041 RMK AO2
Loading
Personal Weather Stations






























Interactive Weather Map New forecast layout! Learn more

10-Day Weather Forecast

Advertisements
Track Severe Weather on mobile